createdAt,value
2022-10-06T00:02:36.743Z,18.77
2022-10-06T00:05:38.924Z,18.63
2022-10-06T00:08:42.501Z,18.87
2022-10-06T00:11:44.920Z,18.89
2022-10-06T00:14:46.992Z,18.40
2022-10-06T00:17:49.719Z,18.60
2022-10-06T00:20:56.526Z,18.64
2022-10-06T00:23:59.151Z,18.84
2022-10-06T00:27:01.579Z,18.64
2022-10-06T00:30:06.371Z,18.87
2022-10-06T00:33:13.803Z,18.79
2022-10-06T00:36:16.918Z,18.89
2022-10-06T00:39:20.666Z,18.96
2022-10-06T00:42:24.256Z,18.74
2022-10-06T00:45:31.461Z,18.96
2022-10-06T00:48:33.988Z,18.89
2022-10-06T00:51:40.972Z,18.55
2022-10-06T00:54:43.270Z,18.63
2022-10-06T00:57:47.481Z,18.74
2022-10-06T01:00:55.699Z,18.87
2022-10-06T01:04:03.278Z,18.80
2022-10-06T01:07:09.105Z,18.52
2022-10-06T01:10:12.773Z,18.69
2022-10-06T01:13:17.130Z,18.80
2022-10-06T01:16:27.481Z,18.80
2022-10-06T01:19:39.087Z,18.84
2022-10-06T01:22:49.455Z,18.83
2022-10-06T01:25:52.147Z,18.84
2022-10-06T01:28:54.872Z,18.53
2022-10-06T01:31:57.402Z,18.81
2022-10-06T01:34:59.609Z,18.73
2022-10-06T01:38:02.529Z,18.52
2022-10-06T01:41:06.187Z,18.15
2022-10-06T01:44:10.246Z,18.49
2022-10-06T01:47:12.341Z,18.45
2022-10-06T01:50:16.039Z,18.64
2022-10-06T01:53:18.640Z,18.59
2022-10-06T01:56:21.599Z,18.67
2022-10-06T01:59:24.723Z,18.77
2022-10-06T02:02:31.043Z,18.73
2022-10-06T02:05:34.694Z,18.81
2022-10-06T02:08:37.418Z,18.52
2022-10-06T02:11:41.224Z,18.67
2022-10-06T02:14:43.690Z,18.67
2022-10-06T02:17:45.656Z,18.64
2022-10-06T02:20:48.637Z,18.83
2022-10-06T02:23:50.823Z,18.79
2022-10-06T02:26:54.472Z,18.66
2022-10-06T02:29:56.879Z,18.70
2022-10-06T02:32:59.318Z,18.56
2022-10-06T02:36:01.378Z,18.67
2022-10-06T02:39:05.095Z,18.73
2022-10-06T02:42:07.469Z,18.79
2022-10-06T02:45:10.230Z,18.86
2022-10-06T02:48:12.283Z,18.84
2022-10-06T02:51:17.589Z,18.71
2022-10-06T02:54:20.659Z,18.74
2022-10-06T02:57:23.215Z,18.74
2022-10-06T03:00:25.618Z,18.67
2022-10-06T03:03:28.864Z,18.69
2022-10-06T03:06:31.726Z,18.79
2022-10-06T03:09:57.841Z,18.81
2022-10-06T03:13:01.404Z,18.80
2022-10-06T03:16:13.038Z,18.60
2022-10-06T03:19:15.858Z,18.60
2022-10-06T03:22:20.862Z,18.71
2022-10-06T03:25:30.953Z,18.61
2022-10-06T03:28:33.623Z,18.70
2022-10-06T03:31:36.147Z,18.80
2022-10-06T03:34:38.596Z,18.76
2022-10-06T03:37:44.177Z,18.77
2022-10-06T03:40:46.792Z,18.77
2022-10-06T03:43:50.742Z,18.71
2022-10-06T03:46:53.288Z,18.71
2022-10-06T03:49:55.429Z,18.76
2022-10-06T03:52:57.956Z,18.74
2022-10-06T03:56:09.348Z,18.73
2022-10-06T03:59:15.123Z,18.76
2022-10-06T04:02:19.248Z,18.74
2022-10-06T04:05:22.606Z,18.76
2022-10-06T04:08:26.000Z,18.70
2022-10-06T04:11:31.615Z,18.74
2022-10-06T04:14:35.180Z,18.74
2022-10-06T04:17:37.804Z,18.70
2022-10-06T04:20:41.482Z,18.73
2022-10-06T04:23:44.372Z,18.70
2022-10-06T04:26:49.106Z,18.69
2022-10-06T04:29:53.053Z,18.69
2022-10-06T04:32:55.692Z,18.67
2022-10-06T04:35:59.903Z,18.69
2022-10-06T04:39:04.704Z,18.67
2022-10-06T04:42:08.783Z,18.67
2022-10-06T04:45:12.462Z,18.64
2022-10-06T04:48:16.402Z,18.66
2022-10-06T04:51:20.202Z,18.64
2022-10-06T04:54:22.572Z,18.66
2022-10-06T04:57:30.093Z,18.66
2022-10-06T05:00:32.748Z,18.67
2022-10-06T05:03:34.908Z,18.63
2022-10-06T05:06:40.730Z,18.64
2022-10-06T05:09:43.480Z,18.61
2022-10-06T05:12:46.627Z,18.64
2022-10-06T05:15:59.739Z,18.63
2022-10-06T05:19:04.932Z,18.60
2022-10-06T05:22:07.625Z,18.60
2022-10-06T05:25:11.035Z,18.60
2022-10-06T05:28:13.463Z,18.61
2022-10-06T05:31:30.083Z,18.61
2022-10-06T05:34:32.349Z,18.59
2022-10-06T05:37:34.918Z,18.60
2022-10-06T05:40:37.605Z,18.59
2022-10-06T05:43:41.297Z,18.59
2022-10-06T05:46:46.520Z,18.59
2022-10-06T05:49:49.306Z,18.57
2022-10-06T05:52:55.165Z,18.57
2022-10-06T05:56:09.906Z,18.57
2022-10-06T05:59:12.403Z,18.55
2022-10-06T06:02:15.349Z,18.59
2022-10-06T06:05:19.399Z,18.59
2022-10-06T06:08:22.084Z,18.57
2022-10-06T06:11:28.409Z,18.57
2022-10-06T06:14:51.312Z,18.55
2022-10-06T06:17:59.344Z,18.56
2022-10-06T06:21:04.497Z,18.56
2022-10-06T06:24:07.388Z,18.56
2022-10-06T06:27:10.169Z,18.56
2022-10-06T06:30:12.818Z,18.56
2022-10-06T06:33:16.705Z,18.57
2022-10-06T06:36:30.628Z,18.55
2022-10-06T06:39:34.305Z,18.55
2022-10-06T06:42:36.655Z,18.56
2022-10-06T06:46:04.831Z,18.55
2022-10-06T06:49:24.331Z,18.56
2022-10-06T06:52:33.063Z,18.60
2022-10-06T06:55:36.320Z,18.59
2022-10-06T06:58:39.386Z,18.63
2022-10-06T07:01:49.414Z,18.61
2022-10-06T07:04:55.811Z,18.66
2022-10-06T07:07:58.633Z,18.69
2022-10-06T07:11:20.271Z,18.69
2022-10-06T07:14:24.399Z,18.69
2022-10-06T07:17:47.394Z,18.71
2022-10-06T07:21:08.775Z,18.71
2022-10-06T07:24:30.002Z,18.74
2022-10-06T07:27:43.774Z,18.76
2022-10-06T07:30:48.863Z,18.79
2022-10-06T07:33:56.514Z,18.80
2022-10-06T07:37:04.013Z,18.83
2022-10-06T07:40:10.262Z,18.83
2022-10-06T07:43:12.772Z,18.86
2022-10-06T07:46:19.628Z,18.86
2022-10-06T07:49:46.995Z,18.89
2022-10-06T07:52:49.713Z,18.90
2022-10-06T07:55:52.350Z,18.89
2022-10-06T07:58:58.934Z,18.94
2022-10-06T08:02:01.756Z,18.93
2022-10-06T08:05:05.088Z,18.97
2022-10-06T08:08:07.683Z,19.01
2022-10-06T08:11:11.136Z,19.04
2022-10-06T08:14:15.922Z,19.03
2022-10-06T08:17:18.199Z,19.06
2022-10-06T08:20:20.567Z,19.04
2022-10-06T08:23:22.799Z,19.08
2022-10-06T08:26:26.998Z,19.15
2022-10-06T08:29:29.083Z,19.17
2022-10-06T08:32:32.551Z,19.21
2022-10-06T08:35:36.385Z,19.24
2022-10-06T08:38:39.279Z,19.25
2022-10-06T08:41:48.706Z,19.25
2022-10-06T08:44:58.697Z,19.27
2022-10-06T08:48:06.145Z,19.28
2022-10-06T08:51:21.080Z,19.28
2022-10-06T08:54:25.284Z,19.24
2022-10-06T08:57:51.207Z,19.32
2022-10-06T09:00:57.157Z,19.17
2022-10-06T09:04:03.938Z,19.22
2022-10-06T09:07:24.547Z,19.28
2022-10-06T09:10:40.837Z,19.35
2022-10-06T09:14:04.043Z,19.32
2022-10-06T09:17:11.851Z,19.42
2022-10-06T09:20:20.435Z,19.47
2022-10-06T09:23:42.462Z,19.44
2022-10-06T09:26:46.916Z,19.47
2022-10-06T09:29:50.611Z,19.51
2022-10-06T09:33:00.747Z,19.51
2022-10-06T09:36:11.214Z,19.51
2022-10-06T09:39:26.996Z,19.57
2022-10-06T09:42:35.736Z,19.55
2022-10-06T09:45:38.329Z,19.58
2022-10-06T09:48:40.751Z,19.55
2022-10-06T09:51:58.614Z,19.55
2022-10-06T09:55:19.809Z,19.58
2022-10-06T09:58:34.321Z,19.57
2022-10-06T10:01:36.666Z,19.55
2022-10-06T10:04:41.220Z,19.51
2022-10-06T10:07:44.142Z,19.58
2022-10-06T10:10:46.771Z,19.61
2022-10-06T10:13:53.114Z,19.62
2022-10-06T10:16:55.813Z,19.62
2022-10-06T10:20:00.667Z,19.66
2022-10-06T10:23:30.104Z,19.66
2022-10-06T10:27:14.408Z,19.65
2022-10-06T10:30:16.788Z,19.61
2022-10-06T10:33:26.986Z,19.66
2022-10-06T10:36:51.209Z,19.69
2022-10-06T10:40:12.583Z,19.73
2022-10-06T10:43:26.602Z,19.75
2022-10-06T10:46:35.017Z,19.72
2022-10-06T10:49:39.952Z,19.72
2022-10-06T10:52:47.099Z,19.72
2022-10-06T10:55:51.550Z,19.76
2022-10-06T10:59:00.266Z,19.79
2022-10-06T11:02:16.598Z,19.81
2022-10-06T11:05:28.996Z,19.79
2022-10-06T11:08:50.306Z,19.81
2022-10-06T11:12:08.504Z,19.82
2022-10-06T11:15:24.834Z,19.85
2022-10-06T11:18:44.962Z,19.86
2022-10-06T11:22:15.749Z,19.86
2022-10-06T11:25:25.843Z,19.85
2022-10-06T11:28:28.457Z,19.87
2022-10-06T11:32:01.567Z,19.90
2022-10-06T11:35:16.015Z,19.89
2022-10-06T11:38:40.710Z,19.87
2022-10-06T11:41:55.314Z,19.87
2022-10-06T11:45:07.468Z,19.85
2022-10-06T11:48:30.277Z,19.93
2022-10-06T11:51:34.385Z,19.95
2022-10-06T11:54:56.883Z,19.97
2022-10-06T11:58:37.508Z,19.97
2022-10-06T12:01:34.865Z,19.97
2022-10-06T12:04:38.348Z,19.99
2022-10-06T12:07:53.096Z,19.99
2022-10-06T12:10:55.719Z,19.93
2022-10-06T12:15:06.462Z,19.96
2022-10-06T12:17:29.269Z,19.99
2022-10-06T12:20:49.824Z,20.02
2022-10-06T12:24:25.358Z,20.06
2022-10-06T12:27:56.319Z,20.05
2022-10-06T12:31:38.240Z,20.06
2022-10-06T12:34:43.652Z,20.05
2022-10-06T12:37:54.446Z,20.06
2022-10-06T12:40:58.005Z,20.10
2022-10-06T12:44:04.202Z,20.12
2022-10-06T12:47:34.737Z,20.09
2022-10-06T12:50:40.503Z,20.12
2022-10-06T12:54:03.558Z,20.10
2022-10-06T12:57:16.098Z,20.10
2022-10-06T13:00:31.774Z,20.08
2022-10-06T13:03:35.063Z,20.10
2022-10-06T13:06:37.268Z,20.08
2022-10-06T13:09:39.943Z,20.10
2022-10-06T13:12:46.960Z,20.12
2022-10-06T13:15:50.366Z,20.10
2022-10-06T13:18:59.489Z,20.12
2022-10-06T13:22:06.738Z,20.12
2022-10-06T13:25:16.780Z,20.12
2022-10-06T13:28:48.377Z,20.09
2022-10-06T13:31:55.744Z,20.10
2022-10-06T13:35:03.970Z,20.12
2022-10-06T13:38:09.373Z,20.13
2022-10-06T13:41:17.882Z,20.10
2022-10-06T13:44:40.287Z,20.13
2022-10-06T13:47:43.938Z,20.12
2022-10-06T13:50:50.430Z,20.12
2022-10-06T13:53:53.852Z,20.13
2022-10-06T13:56:58.117Z,20.10
2022-10-06T14:00:26.103Z,20.09
2022-10-06T14:03:38.248Z,20.12
2022-10-06T14:06:57.062Z,20.08
2022-10-06T14:09:59.380Z,20.06
2022-10-06T14:13:06.089Z,20.05
2022-10-06T14:16:20.670Z,20.05
2022-10-06T14:19:42.338Z,20.08
2022-10-06T14:22:44.644Z,20.03
2022-10-06T14:25:50.540Z,20.02
2022-10-06T14:28:53.955Z,20.02
2022-10-06T14:32:07.820Z,20.00
2022-10-06T14:35:12.286Z,20.02
2022-10-06T14:38:15.171Z,20.05
2022-10-06T14:41:28.366Z,20.05
2022-10-06T14:44:32.065Z,20.03
2022-10-06T14:47:34.558Z,20.06
2022-10-06T14:50:37.868Z,20.03
2022-10-06T14:53:43.041Z,20.05
2022-10-06T14:56:47.482Z,20.03
2022-10-06T14:59:53.711Z,20.05
2022-10-06T15:02:59.549Z,20.00
2022-10-06T15:06:24.694Z,19.96
2022-10-06T15:09:30.864Z,19.95
2022-10-06T15:12:34.168Z,19.95
2022-10-06T15:15:40.436Z,19.97
2022-10-06T15:18:44.543Z,19.97
2022-10-06T15:21:50.787Z,19.95
2022-10-06T15:24:55.240Z,19.96
2022-10-06T15:28:18.637Z,19.97
2022-10-06T15:31:27.037Z,19.95
2022-10-06T15:34:34.486Z,19.93
2022-10-06T15:37:39.838Z,19.92
2022-10-06T15:40:42.655Z,19.89
2022-10-06T15:43:58.593Z,19.86
2022-10-06T15:47:01.929Z,19.86
2022-10-06T15:50:06.442Z,19.89
2022-10-06T15:53:11.526Z,19.85
2022-10-06T15:56:14.495Z,19.85
2022-10-06T15:59:25.455Z,19.81
2022-10-06T16:02:36.555Z,19.79
2022-10-06T16:05:53.487Z,19.78
2022-10-06T16:08:57.200Z,19.82
2022-10-06T16:12:04.745Z,19.76
2022-10-06T16:15:07.919Z,19.73
2022-10-06T16:18:11.037Z,19.76
2022-10-06T16:21:13.762Z,19.73
2022-10-06T16:24:18.846Z,19.73
2022-10-06T16:27:21.741Z,19.71
2022-10-06T16:30:24.350Z,19.68
2022-10-06T16:33:31.047Z,19.66
2022-10-06T16:36:37.896Z,19.66
2022-10-06T16:39:40.423Z,19.62
2022-10-06T16:42:45.883Z,19.62
2022-10-06T16:46:07.335Z,19.59
2022-10-06T16:49:10.876Z,19.55
2022-10-06T16:52:14.177Z,19.57
2022-10-06T16:55:17.782Z,19.54
2022-10-06T16:58:22.501Z,19.52
2022-10-06T17:01:33.146Z,19.52
2022-10-06T17:04:36.491Z,19.48
2022-10-06T17:07:40.494Z,19.45
2022-10-06T17:10:43.101Z,19.47
2022-10-06T17:13:48.290Z,19.48
2022-10-06T17:16:54.293Z,19.44
2022-10-06T17:19:56.777Z,19.42
2022-10-06T17:23:00.550Z,19.39
2022-10-06T17:26:08.504Z,19.35
2022-10-06T17:29:20.394Z,19.36
2022-10-06T17:32:26.191Z,19.35
2022-10-06T17:35:28.921Z,19.35
2022-10-06T17:38:36.086Z,19.32
2022-10-06T17:41:41.718Z,19.28
2022-10-06T17:44:45.852Z,19.28
2022-10-06T17:47:48.584Z,19.28
2022-10-06T17:51:02.482Z,19.27
2022-10-06T17:54:07.833Z,19.24
2022-10-06T17:57:11.640Z,19.21
2022-10-06T18:00:20.135Z,19.22
2022-10-06T18:03:26.799Z,19.22
2022-10-06T18:06:34.730Z,19.21
2022-10-06T18:09:38.629Z,19.18
2022-10-06T18:12:41.713Z,19.18
2022-10-06T18:15:45.094Z,19.15
2022-10-06T18:18:50.221Z,19.17
2022-10-06T18:21:56.725Z,19.14
2022-10-06T18:25:00.416Z,19.11
2022-10-06T18:28:04.190Z,19.17
2022-10-06T18:31:08.976Z,19.12
2022-10-06T18:35:57.698Z,19.11
2022-10-06T18:37:44.234Z,19.11
2022-10-06T18:40:58.171Z,19.06
2022-10-06T18:44:00.754Z,19.07
2022-10-06T18:47:22.691Z,19.06
2022-10-06T18:50:27.206Z,19.06
2022-10-06T18:53:34.744Z,19.07
2022-10-06T18:56:40.170Z,19.06
2022-10-06T18:59:46.227Z,19.08
2022-10-06T19:02:52.529Z,19.11
2022-10-06T19:05:57.911Z,19.07
2022-10-06T19:09:02.876Z,19.04
2022-10-06T19:12:08.687Z,19.06
2022-10-06T19:15:20.026Z,19.03
2022-10-06T19:18:35.519Z,19.01
2022-10-06T19:21:45.402Z,19.03
2022-10-06T19:24:49.721Z,19.01
2022-10-06T19:27:52.890Z,19.00
2022-10-06T19:31:01.802Z,19.01
2022-10-06T19:34:09.452Z,18.99
2022-10-06T19:37:14.764Z,18.97
2022-10-06T19:40:18.034Z,18.97
2022-10-06T19:43:24.641Z,18.97
2022-10-06T19:46:31.820Z,18.99
2022-10-06T19:49:40.282Z,18.96
2022-10-06T19:52:44.600Z,18.93
2022-10-06T19:55:49.369Z,18.91
2022-10-06T19:58:52.816Z,18.96
2022-10-06T20:01:57.214Z,18.94
2022-10-06T20:05:01.104Z,18.96
2022-10-06T20:08:05.712Z,18.99
2022-10-06T20:11:15.784Z,18.94
2022-10-06T20:14:24.692Z,18.93
2022-10-06T20:17:30.292Z,18.90
2022-10-06T20:20:35.668Z,18.90
2022-10-06T20:23:42.036Z,18.87
2022-10-06T20:26:50.685Z,18.83
2022-10-06T20:29:59.084Z,18.86
2022-10-06T20:33:10.663Z,18.87
2022-10-06T20:36:18.699Z,18.84
2022-10-06T20:39:46.825Z,18.86
2022-10-06T20:42:57.000Z,18.84
2022-10-06T20:46:05.525Z,18.84
2022-10-06T20:49:15.540Z,18.84
2022-10-06T20:52:23.341Z,18.80
2022-10-06T20:55:28.784Z,18.81
2022-10-06T20:58:43.887Z,18.79
2022-10-06T21:01:52.766Z,18.77
2022-10-06T21:04:58.853Z,18.79
2022-10-06T21:08:08.300Z,18.79
2022-10-06T21:11:18.710Z,18.79
2022-10-06T21:14:22.365Z,18.79
2022-10-06T21:17:25.750Z,18.76
2022-10-06T21:20:28.348Z,18.74
2022-10-06T21:23:38.696Z,18.79
2022-10-06T21:26:45.175Z,18.77
2022-10-06T21:29:53.345Z,18.74
2022-10-06T21:32:58.554Z,18.76
2022-10-06T21:36:05.721Z,18.76
2022-10-06T21:39:10.594Z,18.74
2022-10-06T21:42:13.794Z,18.73
2022-10-06T21:45:17.320Z,18.74
2022-10-06T21:48:21.418Z,18.76
2022-10-06T21:51:27.794Z,18.77
2022-10-06T21:54:30.565Z,18.73
2022-10-06T21:57:33.217Z,18.73
2022-10-06T22:00:36.367Z,18.76
2022-10-06T22:03:40.003Z,18.71
2022-10-06T22:06:44.351Z,18.71
2022-10-06T22:09:46.783Z,18.73
2022-10-06T22:12:50.017Z,18.70
2022-10-06T22:15:55.258Z,18.71
2022-10-06T22:18:59.405Z,18.71
2022-10-06T22:22:02.753Z,18.71
2022-10-06T22:25:06.545Z,18.70
2022-10-06T22:28:09.528Z,18.70
2022-10-06T22:31:13.204Z,18.70
2022-10-06T22:34:20.742Z,18.67
2022-10-06T22:37:23.163Z,18.66
2022-10-06T22:40:25.724Z,18.64
2022-10-06T22:43:28.744Z,18.64
2022-10-06T22:46:33.576Z,18.64
2022-10-06T22:49:36.054Z,18.63
2022-10-06T22:52:38.643Z,18.64
2022-10-06T22:55:41.390Z,18.63
2022-10-06T22:58:43.742Z,18.61
2022-10-06T23:01:46.759Z,18.61
2022-10-06T23:04:49.068Z,18.63
2022-10-06T23:07:52.501Z,18.63
2022-10-06T23:10:54.871Z,18.63
2022-10-06T23:13:57.881Z,18.60
2022-10-06T23:17:00.564Z,18.61
2022-10-06T23:20:03.581Z,18.57
2022-10-06T23:23:05.595Z,18.57
2022-10-06T23:26:11.387Z,18.55
2022-10-06T23:29:13.518Z,18.55
2022-10-06T23:32:16.858Z,18.55
2022-10-06T23:35:19.217Z,18.55
2022-10-06T23:38:21.680Z,18.55
2022-10-06T23:41:24.029Z,18.50
2022-10-06T23:44:26.720Z,18.52
2022-10-06T23:47:29.118Z,18.50
2022-10-06T23:50:31.513Z,18.49
2022-10-06T23:53:34.955Z,18.49
2022-10-06T23:56:37.495Z,18.47
2022-10-06T23:59:39.826Z,18.49
